Time;durP1;ratioP1;P1;durP2;ratioP2;P2;SDS_P1;SDS_P2;PMS_P1;PMS_P2;Temp;Humidity;BMP_temperature;BMP_pressure;BME280_temperature;BME280_humidity;BME280_pressure;Samples;Min_cycle;Max_cycle;Signal;HPM_P1;HPM_P2
2020/08/13 00:01:10;;;;;;;4.93;4.53;;;;;;;23.63;69.04;100046.33;;;;-43
2020/08/13 00:04:10;;;;;;;5.05;4.65;;;;;;;23.62;69.01;100040.69;;;;-43
2020/08/13 00:07:10;;;;;;;5.04;4.54;;;;;;;23.62;69.08;100031.69;;;;-44
2020/08/13 00:10:10;;;;;;;5.28;4.80;;;;;;;23.62;69.13;100024.51;;;;-44
2020/08/13 00:13:10;;;;;;;4.95;4.41;;;;;;;23.61;69.09;100023.93;;;;-43
2020/08/13 00:16:10;;;;;;;5.03;4.63;;;;;;;23.61;69.12;100023.70;;;;-43
2020/08/13 00:19:10;;;;;;;4.80;4.40;;;;;;;23.60;69.12;100021.00;;;;-43
2020/08/13 00:22:10;;;;;;;4.80;4.40;;;;;;;23.60;69.16;100016.26;;;;-44
2020/08/13 00:25:10;;;;;;;4.97;4.57;;;;;;;23.60;69.11;100013.66;;;;-43
2020/08/13 00:28:10;;;;;;;4.79;4.39;;;;;;;23.59;69.09;100005.23;;;;-43
2020/08/13 00:31:10;;;;;;;5.32;4.67;;;;;;;23.59;69.14;100000.41;;;;-44
2020/08/13 00:34:10;;;;;;;4.99;4.59;;;;;;;23.59;69.15;99999.60;;;;-43
2020/08/13 00:37:10;;;;;;;4.70;4.30;;;;;;;23.59;69.18;99997.39;;;;-43
2020/08/13 00:40:10;;;;;;;4.72;4.32;;;;;;;23.59;69.16;99997.30;;;;-43
2020/08/13 00:43:10;;;;;;;4.91;4.47;;;;;;;23.58;69.25;99996.50;;;;-43
2020/08/13 00:46:10;;;;;;;4.85;4.45;;;;;;;23.57;69.20;99993.97;;;;-43
2020/08/13 00:49:10;;;;;;;4.68;4.30;;;;;;;23.58;69.20;99990.95;;;;-43
2020/08/13 00:52:10;;;;;;;5.07;4.67;;;;;;;23.58;69.22;99992.02;;;;-43
2020/08/13 00:55:10;;;;;;;4.61;4.21;;;;;;;23.57;69.20;99997.19;;;;-44
2020/08/13 00:58:10;;;;;;;4.69;4.29;;;;;;;23.57;69.23;99994.31;;;;-42
2020/08/13 01:01:10;;;;;;;4.75;4.35;;;;;;;23.57;69.17;99993.99;;;;-43
2020/08/13 01:04:10;;;;;;;4.59;4.19;;;;;;;23.57;69.23;100003.16;;;;-43
2020/08/13 01:07:10;;;;;;;5.00;4.60;;;;;;;23.56;69.16;100004.41;;;;-43
2020/08/13 01:10:10;;;;;;;4.69;4.30;;;;;;;23.56;69.23;99998.59;;;;-43
2020/08/13 01:13:10;;;;;;;4.71;4.31;;;;;;;23.56;69.23;99995.55;;;;-43
2020/08/13 01:16:10;;;;;;;4.78;4.36;;;;;;;23.56;69.21;99996.62;;;;-45
2020/08/13 01:19:10;;;;;;;4.86;4.46;;;;;;;23.55;69.22;100000.23;;;;-43
2020/08/13 01:22:10;;;;;;;4.75;4.37;;;;;;;23.55;69.17;99996.47;;;;-43
2020/08/13 01:25:10;;;;;;;5.10;4.65;;;;;;;23.55;69.19;99997.61;;;;-43
2020/08/13 01:28:10;;;;;;;5.08;4.63;;;;;;;23.55;69.19;100002.86;;;;-43
2020/08/13 01:31:10;;;;;;;4.93;4.53;;;;;;;23.55;69.19;100008.73;;;;-43
2020/08/13 01:34:10;;;;;;;4.74;4.34;;;;;;;23.55;69.24;100008.26;;;;-44
2020/08/13 01:37:10;;;;;;;4.90;4.50;;;;;;;23.54;69.18;100002.13;;;;-43
2020/08/13 01:40:10;;;;;;;4.79;4.37;;;;;;;23.54;69.15;100006.87;;;;-43
2020/08/13 01:43:10;;;;;;;5.03;4.55;;;;;;;23.54;69.19;100013.09;;;;-43
2020/08/13 01:46:10;;;;;;;4.62;4.25;;;;;;;23.54;69.20;100012.37;;;;-43
2020/08/13 01:49:10;;;;;;;4.93;4.52;;;;;;;23.54;69.19;100009.98;;;;-43
2020/08/13 01:52:10;;;;;;;4.90;4.50;;;;;;;23.54;69.16;100000.35;;;;-43
2020/08/13 01:55:09;;;;;;;4.65;4.26;;;;;;;23.54;69.18;100007.37;;;;-43
2020/08/13 01:58:10;;;;;;;4.95;4.55;;;;;;;23.54;69.20;100011.23;;;;-43
2020/08/13 02:01:10;;;;;;;4.99;4.59;;;;;;;23.54;69.18;100010.16;;;;-43
2020/08/13 02:04:10;;;;;;;4.87;4.47;;;;;;;23.54;69.10;100011.80;;;;-43
2020/08/13 02:07:10;;;;;;;4.75;4.35;;;;;;;23.54;69.18;100014.34;;;;-44
2020/08/13 02:10:10;;;;;;;4.65;4.25;;;;;;;23.54;69.17;100017.53;;;;-43
2020/08/13 02:13:10;;;;;;;4.85;4.45;;;;;;;23.54;69.16;100014.02;;;;-45
2020/08/13 02:16:10;;;;;;;4.62;4.28;;;;;;;23.53;69.18;100014.27;;;;-43
2020/08/13 02:19:10;;;;;;;4.59;4.19;;;;;;;23.53;69.17;100017.88;;;;-43
2020/08/13 02:22:10;;;;;;;4.71;4.32;;;;;;;23.53;69.18;100016.45;;;;-43
2020/08/13 02:25:10;;;;;;;4.95;4.53;;;;;;;23.53;69.19;100005.91;;;;-45
2020/08/13 02:28:10;;;;;;;4.89;4.49;;;;;;;23.53;69.13;99998.39;;;;-44
2020/08/13 02:31:10;;;;;;;4.87;4.47;;;;;;;23.52;69.20;99989.50;;;;-44
2020/08/13 02:34:10;;;;;;;4.75;4.35;;;;;;;23.52;69.22;99988.68;;;;-43
2020/08/13 02:37:10;;;;;;;4.65;4.25;;;;;;;23.52;69.19;99997.09;;;;-44
2020/08/13 02:40:10;;;;;;;4.63;4.25;;;;;;;23.52;69.20;99998.41;;;;-43
2020/08/13 02:43:10;;;;;;;4.98;4.58;;;;;;;23.52;69.15;99990.50;;;;-43
2020/08/13 02:46:10;;;;;;;4.69;4.29;;;;;;;23.52;69.11;99989.10;;;;-44
2020/08/13 02:49:10;;;;;;;4.87;4.45;;;;;;;23.52;69.19;99988.45;;;;-43
2020/08/13 02:52:10;;;;;;;5.07;4.27;;;;;;;23.51;69.16;99994.19;;;;-43
2020/08/13 02:55:10;;;;;;;4.67;4.27;;;;;;;23.51;69.16;99992.39;;;;-43
2020/08/13 02:58:10;;;;;;;4.69;4.29;;;;;;;23.51;69.20;99987.70;;;;-43
2020/08/13 03:01:10;;;;;;;4.62;4.22;;;;;;;23.51;69.19;99989.11;;;;-43
2020/08/13 03:04:10;;;;;;;4.84;4.44;;;;;;;23.51;69.14;99982.90;;;;-43
2020/08/13 03:07:10;;;;;;;4.52;4.12;;;;;;;23.51;69.13;99979.61;;;;-43
2020/08/13 03:10:10;;;;;;;4.51;4.20;;;;;;;23.50;69.13;99981.92;;;;-43
2020/08/13 03:13:10;;;;;;;4.20;3.89;;;;;;;23.49;69.17;99980.39;;;;-43
2020/08/13 03:16:10;;;;;;;4.62;4.22;;;;;;;23.50;69.20;99976.78;;;;-43
2020/08/13 03:19:10;;;;;;;4.59;4.19;;;;;;;23.50;69.09;99978.16;;;;-43
2020/08/13 03:22:10;;;;;;;4.83;4.43;;;;;;;23.50;69.20;99980.47;;;;-43
2020/08/13 03:25:10;;;;;;;4.73;4.33;;;;;;;23.50;69.14;99978.17;;;;-43
2020/08/13 03:28:10;;;;;;;4.47;4.07;;;;;;;23.49;69.15;99973.69;;;;-43
2020/08/13 03:31:10;;;;;;;5.58;4.06;;;;;;;23.49;69.15;99977.94;;;;-43
2020/08/13 03:34:10;;;;;;;4.65;4.21;;;;;;;23.49;69.21;99985.06;;;;-43
2020/08/13 03:37:10;;;;;;;4.65;4.25;;;;;;;23.49;69.12;99991.61;;;;-43
2020/08/13 03:40:10;;;;;;;4.78;4.38;;;;;;;23.49;69.12;99992.33;;;;-43
2020/08/13 03:43:10;;;;;;;4.46;4.06;;;;;;;23.48;69.17;99993.81;;;;-43
2020/08/13 03:46:10;;;;;;;4.67;4.29;;;;;;;23.48;69.17;99991.95;;;;-43
2020/08/13 03:49:10;;;;;;;4.57;4.19;;;;;;;23.49;69.21;99989.47;;;;-44
2020/08/13 03:52:10;;;;;;;4.52;4.22;;;;;;;23.48;69.23;99990.05;;;;-44
2020/08/13 03:55:10;;;;;;;4.32;4.02;;;;;;;23.48;69.16;99992.36;;;;-43
2020/08/13 03:58:10;;;;;;;4.65;4.25;;;;;;;23.47;69.17;99992.86;;;;-43
2020/08/13 04:01:10;;;;;;;4.53;4.23;;;;;;;23.48;69.21;99987.13;;;;-44
2020/08/13 04:04:10;;;;;;;4.53;4.13;;;;;;;23.48;69.19;99982.21;;;;-43
2020/08/13 04:07:10;;;;;;;4.52;4.19;;;;;;;23.48;69.11;99977.40;;;;-43
2020/08/13 04:10:10;;;;;;;4.60;4.25;;;;;;;23.48;69.16;99992.36;;;;-43
2020/08/13 04:13:10;;;;;;;4.64;4.17;;;;;;;23.48;69.13;99996.77;;;;-43
2020/08/13 04:16:10;;;;;;;4.35;4.05;;;;;;;23.48;69.18;99993.34;;;;-43
2020/08/13 04:19:10;;;;;;;4.34;4.04;;;;;;;23.47;69.16;99996.79;;;;-43
2020/08/13 04:22:10;;;;;;;4.70;4.30;;;;;;;23.48;69.13;100000.30;;;;-44
2020/08/13 04:25:10;;;;;;;4.47;4.15;;;;;;;23.47;69.12;99994.91;;;;-43
2020/08/13 04:28:10;;;;;;;4.30;4.00;;;;;;;23.47;69.13;99993.19;;;;-43
2020/08/13 04:31:10;;;;;;;4.35;4.01;;;;;;;23.47;69.11;99998.66;;;;-43
2020/08/13 04:34:10;;;;;;;4.29;3.99;;;;;;;23.47;69.16;100000.06;;;;-43
2020/08/13 04:37:10;;;;;;;4.27;3.97;;;;;;;23.46;69.12;99998.35;;;;-43
2020/08/13 04:40:10;;;;;;;4.25;3.92;;;;;;;23.47;69.11;99986.96;;;;-43
2020/08/13 04:43:10;;;;;;;4.23;3.93;;;;;;;23.46;69.10;100001.70;;;;-43
2020/08/13 04:46:10;;;;;;;4.11;3.81;;;;;;;23.47;69.09;100005.37;;;;-43
2020/08/13 04:49:10;;;;;;;4.19;3.89;;;;;;;23.47;69.13;100008.55;;;;-43
2020/08/13 04:52:10;;;;;;;4.25;3.95;;;;;;;23.47;69.09;100010.61;;;;-43
2020/08/13 04:55:10;;;;;;;4.23;3.93;;;;;;;23.46;69.10;100012.25;;;;-43
2020/08/13 04:58:10;;;;;;;4.29;3.90;;;;;;;23.46;69.12;100018.63;;;;-43
2020/08/13 05:01:10;;;;;;;4.27;3.97;;;;;;;23.46;69.13;100011.29;;;;-43
2020/08/13 05:04:10;;;;;;;4.14;3.84;;;;;;;23.47;69.07;100016.98;;;;-43
2020/08/13 05:07:10;;;;;;;4.34;3.85;;;;;;;23.46;69.11;100027.05;;;;-43
2020/08/13 05:10:10;;;;;;;4.15;3.85;;;;;;;23.46;69.12;100022.33;;;;-43
2020/08/13 05:13:10;;;;;;;4.13;3.83;;;;;;;23.46;69.06;100024.94;;;;-43
2020/08/13 05:16:10;;;;;;;4.16;3.86;;;;;;;23.46;69.07;100035.97;;;;-45
2020/08/13 05:19:10;;;;;;;4.23;3.93;;;;;;;23.46;69.05;100040.64;;;;-43
2020/08/13 05:22:10;;;;;;;4.49;4.09;;;;;;;23.46;69.12;100046.45;;;;-43
2020/08/13 05:25:10;;;;;;;4.21;3.87;;;;;;;23.45;69.06;100047.78;;;;-43
2020/08/13 05:28:10;;;;;;;4.24;3.94;;;;;;;23.46;69.10;100049.08;;;;-43
2020/08/13 05:31:10;;;;;;;4.33;3.96;;;;;;;23.46;69.10;100045.72;;;;-44
2020/08/13 05:34:10;;;;;;;4.10;3.80;;;;;;;23.45;69.04;100044.84;;;;-43
2020/08/13 05:37:10;;;;;;;4.37;4.07;;;;;;;23.46;69.12;100048.09;;;;-44
2020/08/13 05:40:10;;;;;;;4.10;3.80;;;;;;;23.45;69.07;100048.02;;;;-44
2020/08/13 05:43:10;;;;;;;3.92;3.62;;;;;;;23.45;69.11;100049.48;;;;-43
2020/08/13 05:46:10;;;;;;;4.03;3.73;;;;;;;23.45;69.08;100047.29;;;;-44
2020/08/13 05:49:10;;;;;;;4.01;3.71;;;;;;;23.45;69.06;100043.20;;;;-43
2020/08/13 05:52:10;;;;;;;4.14;3.84;;;;;;;23.45;69.05;100049.31;;;;-43
2020/08/13 05:55:10;;;;;;;3.90;3.60;;;;;;;23.45;69.06;100061.20;;;;-43
2020/08/13 05:58:10;;;;;;;4.13;3.65;;;;;;;23.45;69.07;100066.27;;;;-43
2020/08/13 06:01:10;;;;;;;4.16;3.86;;;;;;;23.46;69.07;100076.72;;;;-43
2020/08/13 06:04:10;;;;;;;4.09;3.79;;;;;;;23.45;69.10;100080.73;;;;-44
2020/08/13 06:07:10;;;;;;;3.89;3.59;;;;;;;23.45;69.08;100088.52;;;;-43
2020/08/13 06:10:10;;;;;;;4.17;3.87;;;;;;;23.45;69.04;100089.81;;;;-43
2020/08/13 06:13:10;;;;;;;4.25;3.95;;;;;;;23.46;69.04;100097.23;;;;-43
2020/08/13 06:16:10;;;;;;;4.16;3.85;;;;;;;23.45;69.05;100111.95;;;;-43
2020/08/13 06:19:10;;;;;;;4.11;3.81;;;;;;;23.45;69.06;100116.81;;;;-43
2020/08/13 06:22:10;;;;;;;4.30;4.00;;;;;;;23.45;69.07;100119.34;;;;-43
2020/08/13 06:25:10;;;;;;;3.83;3.53;;;;;;;23.45;69.06;100131.53;;;;-43
2020/08/13 06:28:10;;;;;;;4.06;3.76;;;;;;;23.46;69.05;100135.19;;;;-43
2020/08/13 06:31:10;;;;;;;4.01;3.71;;;;;;;23.45;69.03;100131.93;;;;-43
2020/08/13 06:34:10;;;;;;;3.85;3.55;;;;;;;23.45;69.03;100140.20;;;;-44
2020/08/13 06:37:10;;;;;;;4.21;3.89;;;;;;;23.45;69.08;100142.06;;;;-43
2020/08/13 06:40:10;;;;;;;4.11;3.81;;;;;;;23.46;69.05;100144.59;;;;-43
2020/08/13 06:43:10;;;;;;;3.91;3.61;;;;;;;23.45;69.06;100146.48;;;;-44
2020/08/13 06:46:10;;;;;;;3.98;3.68;;;;;;;23.45;69.01;100149.41;;;;-43
2020/08/13 06:49:10;;;;;;;3.96;3.66;;;;;;;23.45;69.06;100145.41;;;;-43
2020/08/13 06:52:10;;;;;;;4.04;3.74;;;;;;;23.45;68.97;100137.64;;;;-43
2020/08/13 06:55:10;;;;;;;3.89;3.59;;;;;;;23.45;69.01;100144.61;;;;-43
2020/08/13 06:58:10;;;;;;;3.70;3.40;;;;;;;23.45;69.04;100145.98;;;;-43
2020/08/13 07:01:10;;;;;;;3.99;3.69;;;;;;;23.44;69.00;100142.23;;;;-43
2020/08/13 07:04:10;;;;;;;3.98;3.68;;;;;;;23.45;69.05;100146.89;;;;-43
2020/08/13 07:07:10;;;;;;;3.99;3.69;;;;;;;23.45;69.08;100153.59;;;;-43
2020/08/13 07:10:10;;;;;;;3.76;3.46;;;;;;;23.45;69.03;100150.41;;;;-43
2020/08/13 07:13:10;;;;;;;3.95;3.65;;;;;;;23.44;69.00;100148.14;;;;-43
2020/08/13 07:16:10;;;;;;;3.93;3.63;;;;;;;23.44;69.08;100156.30;;;;-43
2020/08/13 07:19:09;;;;;;;3.90;3.60;;;;;;;23.44;69.04;100155.00;;;;-43
2020/08/13 07:22:10;;;;;;;4.11;3.81;;;;;;;23.44;69.04;100149.94;;;;-44
2020/08/13 07:25:10;;;;;;;3.93;3.63;;;;;;;23.44;69.00;100145.69;;;;-43
2020/08/13 07:28:10;;;;;;;3.78;3.49;;;;;;;23.44;69.04;100149.70;;;;-43
2020/08/13 07:31:10;;;;;;;3.90;3.60;;;;;;;23.43;69.02;100147.99;;;;-43
2020/08/13 07:34:10;;;;;;;4.01;3.71;;;;;;;23.44;69.05;100156.64;;;;-43
2020/08/13 07:37:10;;;;;;;4.03;3.73;;;;;;;23.43;69.01;100158.30;;;;-44
2020/08/13 07:40:10;;;;;;;3.93;3.63;;;;;;;23.43;69.01;100163.20;;;;-43
2020/08/13 07:43:10;;;;;;;3.85;3.55;;;;;;;23.43;69.05;100165.82;;;;-43
2020/08/13 07:46:10;;;;;;;3.83;3.53;;;;;;;23.44;69.04;100177.91;;;;-44
2020/08/13 07:49:10;;;;;;;3.97;3.67;;;;;;;23.44;69.06;100185.59;;;;-44
2020/08/13 07:52:10;;;;;;;3.85;3.55;;;;;;;23.44;69.00;100192.47;;;;-43
2020/08/13 07:55:10;;;;;;;3.93;3.63;;;;;;;23.43;69.07;100192.16;;;;-43
2020/08/13 07:58:10;;;;;;;3.81;3.51;;;;;;;23.44;69.00;100198.45;;;;-43
2020/08/13 08:01:10;;;;;;;3.84;3.54;;;;;;;23.44;69.00;100199.75;;;;-43
2020/08/13 08:04:10;;;;;;;3.98;3.68;;;;;;;23.43;69.01;100204.59;;;;-43
2020/08/13 08:07:10;;;;;;;3.95;3.65;;;;;;;23.43;69.01;100206.38;;;;-43
2020/08/13 08:10:10;;;;;;;3.83;3.53;;;;;;;23.44;68.99;100208.16;;;;-43
2020/08/13 08:13:10;;;;;;;3.77;3.47;;;;;;;23.44;68.99;100211.69;;;;-43
2020/08/13 08:16:10;;;;;;;3.77;3.48;;;;;;;23.43;68.99;100210.73;;;;-43
2020/08/13 08:19:10;;;;;;;3.69;3.39;;;;;;;23.43;69.04;100214.66;;;;-43
2020/08/13 08:22:10;;;;;;;4.07;3.77;;;;;;;23.44;69.00;100218.07;;;;-44
2020/08/13 08:25:10;;;;;;;3.86;3.54;;;;;;;23.43;69.02;100213.41;;;;-44
2020/08/13 08:28:10;;;;;;;4.11;3.80;;;;;;;23.43;68.90;100214.73;;;;-43
2020/08/13 08:31:10;;;;;;;4.09;3.79;;;;;;;23.43;69.02;100212.67;;;;-43
2020/08/13 08:34:10;;;;;;;4.05;3.65;;;;;;;23.43;68.98;100210.89;;;;-43
2020/08/13 08:37:10;;;;;;;3.97;3.67;;;;;;;23.43;69.02;100216.77;;;;-43
2020/08/13 08:40:10;;;;;;;3.99;3.69;;;;;;;23.43;69.02;100221.69;;;;-43
2020/08/13 08:43:10;;;;;;;3.90;3.60;;;;;;;23.43;69.05;100228.61;;;;-43
2020/08/13 08:46:10;;;;;;;4.13;3.83;;;;;;;23.43;69.06;100236.39;;;;-43
2020/08/13 08:49:10;;;;;;;3.87;3.51;;;;;;;23.43;69.09;100237.61;;;;-43
2020/08/13 08:52:10;;;;;;;4.05;3.75;;;;;;;23.42;68.99;100239.26;;;;-44
2020/08/13 08:55:10;;;;;;;4.17;3.87;;;;;;;23.43;69.03;100243.26;;;;-43
2020/08/13 08:58:10;;;;;;;4.19;3.87;;;;;;;23.42;69.01;100243.19;;;;-43
2020/08/13 09:01:10;;;;;;;4.14;3.84;;;;;;;23.42;69.06;100240.91;;;;-43
2020/08/13 09:04:09;;;;;;;3.95;3.65;;;;;;;23.43;69.02;100241.13;;;;-43
2020/08/13 09:07:10;;;;;;;4.07;3.77;;;;;;;23.42;69.01;100241.48;;;;-43
2020/08/13 09:10:10;;;;;;;4.13;3.83;;;;;;;23.43;69.04;100246.12;;;;-43
2020/08/13 09:13:10;;;;;;;4.29;3.99;;;;;;;23.42;69.04;100243.11;;;;-43
2020/08/13 09:16:10;;;;;;;4.03;3.73;;;;;;;23.42;69.02;100242.45;;;;-43
2020/08/13 09:19:10;;;;;;;4.39;4.01;;;;;;;23.42;69.06;100237.39;;;;-43
2020/08/13 09:22:10;;;;;;;4.31;3.95;;;;;;;23.43;69.07;100242.11;;;;-43
2020/08/13 09:25:10;;;;;;;4.16;3.86;;;;;;;23.42;69.03;100243.04;;;;-44
2020/08/13 09:28:10;;;;;;;3.93;3.63;;;;;;;23.42;69.03;100242.71;;;;-44
2020/08/13 09:31:10;;;;;;;4.03;3.73;;;;;;;23.42;69.02;100247.03;;;;-44
2020/08/13 09:34:10;;;;;;;4.19;3.80;;;;;;;23.42;69.02;100241.73;;;;-45
2020/08/13 09:37:10;;;;;;;4.05;3.75;;;;;;;23.42;68.99;100246.40;;;;-43
2020/08/13 09:40:10;;;;;;;4.16;3.82;;;;;;;23.41;69.06;100251.72;;;;-44
2020/08/13 09:43:10;;;;;;;3.99;3.60;;;;;;;23.41;69.02;100248.45;;;;-43
2020/08/13 09:46:10;;;;;;;4.16;3.85;;;;;;;23.41;68.96;100248.54;;;;-43
2020/08/13 09:49:10;;;;;;;4.19;3.89;;;;;;;23.40;69.04;100246.07;;;;-44
2020/08/13 09:52:10;;;;;;;4.33;4.03;;;;;;;23.41;69.01;100241.73;;;;-43
2020/08/13 09:55:10;;;;;;;3.91;3.61;;;;;;;23.40;69.03;100238.14;;;;-44
2020/08/13 09:58:10;;;;;;;4.09;3.79;;;;;;;23.40;68.96;100241.16;;;;-43
2020/08/13 10:01:10;;;;;;;4.31;4.01;;;;;;;23.41;69.00;100238.72;;;;-43
2020/08/13 10:04:10;;;;;;;4.31;3.91;;;;;;;23.40;69.22;100239.53;;;;-42
2020/08/13 10:07:10;;;;;;;4.13;3.81;;;;;;;23.43;69.21;100243.66;;;;-48
2020/08/13 10:10:10;;;;;;;4.42;4.02;;;;;;;23.45;69.22;100240.85;;;;-43
2020/08/13 10:13:10;;;;;;;4.75;4.00;;;;;;;23.47;69.31;100237.16;;;;-43
2020/08/13 10:16:10;;;;;;;4.61;4.21;;;;;;;23.48;69.41;100233.95;;;;-42
2020/08/13 10:19:10;;;;;;;6.29;4.81;;;;;;;23.48;69.68;100231.66;;;;-43
2020/08/13 10:22:10;;;;;;;10.59;4.79;;;;;;;23.49;69.51;100228.45;;;;-43
2020/08/13 10:25:10;;;;;;;5.15;4.64;;;;;;;23.48;69.44;100227.23;;;;-44
2020/08/13 10:28:10;;;;;;;4.41;4.01;;;;;;;23.48;69.32;100231.17;;;;-43
2020/08/13 10:31:10;;;;;;;4.54;4.15;;;;;;;23.48;69.33;100231.43;;;;-43
2020/08/13 10:34:10;;;;;;;4.20;3.87;;;;;;;23.47;69.33;100233.08;;;;-43
2020/08/13 10:37:10;;;;;;;5.07;4.39;;;;;;;23.47;69.32;100234.70;;;;-44
2020/08/13 10:40:10;;;;;;;4.89;4.44;;;;;;;23.46;69.31;100232.33;;;;-44
2020/08/13 10:43:10;;;;;;;4.78;4.37;;;;;;;23.46;69.27;100230.79;;;;-43
2020/08/13 10:46:10;;;;;;;4.87;4.23;;;;;;;23.46;69.26;100235.77;;;;-43
2020/08/13 10:49:10;;;;;;;4.59;4.19;;;;;;;23.46;69.31;100236.36;;;;-43
2020/08/13 10:52:10;;;;;;;5.03;4.47;;;;;;;23.46;69.26;100236.28;;;;-43
2020/08/13 10:55:10;;;;;;;4.67;4.25;;;;;;;23.45;69.24;100236.29;;;;-43
2020/08/13 10:58:10;;;;;;;4.65;4.19;;;;;;;23.45;69.25;100238.34;;;;-44
2020/08/13 11:01:10;;;;;;;5.09;4.13;;;;;;;23.45;69.21;100249.47;;;;-43
2020/08/13 11:04:10;;;;;;;4.79;4.36;;;;;;;23.45;69.18;100251.10;;;;-43
2020/08/13 11:07:10;;;;;;;5.87;4.23;;;;;;;23.45;69.19;100250.36;;;;-43
2020/08/13 11:10:10;;;;;;;4.31;3.87;;;;;;;23.45;69.18;100256.17;;;;-44
2020/08/13 11:13:10;;;;;;;4.67;4.25;;;;;;;23.45;69.15;100256.56;;;;-43
2020/08/13 11:16:10;;;;;;;4.77;4.35;;;;;;;23.44;69.15;100256.66;;;;-43
2020/08/13 11:19:10;;;;;;;4.87;4.36;;;;;;;23.44;69.19;100260.98;;;;-43
2020/08/13 11:22:10;;;;;;;4.58;4.21;;;;;;;23.44;69.12;100261.89;;;;-43
2020/08/13 11:25:10;;;;;;;4.65;4.25;;;;;;;23.44;69.19;100267.87;;;;-43
2020/08/13 11:28:10;;;;;;;4.49;4.08;;;;;;;23.44;69.13;100273.51;;;;-43
2020/08/13 11:31:10;;;;;;;4.72;4.32;;;;;;;23.44;69.25;100276.70;;;;-43
2020/08/13 11:34:10;;;;;;;4.13;3.83;;;;;;;23.43;69.23;100278.19;;;;-44
2020/08/13 11:37:10;;;;;;;4.47;4.07;;;;;;;23.43;69.17;100271.25;;;;-43
2020/08/13 11:40:09;;;;;;;4.47;4.06;;;;;;;23.43;69.19;100275.73;;;;-43
2020/08/13 11:43:10;;;;;;;5.34;4.32;;;;;;;23.44;69.35;100274.41;;;;-43
2020/08/13 11:46:10;;;;;;;4.69;4.29;;;;;;;23.46;69.35;100278.72;;;;-45
2020/08/13 11:49:10;;;;;;;5.23;4.29;;;;;;;23.47;69.52;100280.17;;;;-53
2020/08/13 11:52:10;;;;;;;6.53;4.50;;;;;;;23.48;69.58;100280.66;;;;-47
2020/08/13 11:55:10;;;;;;;5.03;4.53;;;;;;;23.50;69.58;100284.64;;;;-59
2020/08/13 11:58:10;;;;;;;5.10;4.69;;;;;;;23.51;69.61;100289.52;;;;-50
2020/08/13 12:01:10;;;;;;;5.71;4.85;;;;;;;23.53;69.76;100288.86;;;;-41
2020/08/13 12:04:10;;;;;;;5.30;4.80;;;;;;;23.55;69.71;100295.45;;;;-50
2020/08/13 12:07:10;;;;;;;5.76;4.79;;;;;;;23.56;69.82;100293.00;;;;-43
2020/08/13 12:10:10;;;;;;;5.30;4.80;;;;;;;23.57;69.82;100293.31;;;;-43
2020/08/13 12:13:10;;;;;;;5.29;4.81;;;;;;;23.59;69.88;100288.44;;;;-42
2020/08/13 12:16:10;;;;;;;5.43;4.93;;;;;;;23.61;69.91;100294.64;;;;-42
2020/08/13 12:19:10;;;;;;;5.23;4.77;;;;;;;23.61;69.96;100296.09;;;;-41
2020/08/13 12:22:10;;;;;;;5.44;4.95;;;;;;;23.64;69.84;100298.92;;;;-43
2020/08/13 12:25:10;;;;;;;5.23;4.73;;;;;;;23.65;69.86;100294.23;;;;-48
2020/08/13 12:28:10;;;;;;;5.43;4.95;;;;;;;23.67;69.82;100302.55;;;;-47
2020/08/13 12:31:10;;;;;;;5.19;4.69;;;;;;;23.68;69.77;100300.61;;;;-45
2020/08/13 12:34:10;;;;;;;5.47;4.94;;;;;;;23.68;69.83;100294.63;;;;-47
2020/08/13 12:37:10;;;;;;;5.11;4.45;;;;;;;23.70;69.81;100294.58;;;;-50
2020/08/13 12:40:10;;;;;;;5.17;4.67;;;;;;;23.70;69.69;100293.95;;;;-45
2020/08/13 12:43:10;;;;;;;5.07;4.51;;;;;;;23.71;69.74;100290.89;;;;-51
2020/08/13 12:46:10;;;;;;;5.51;4.92;;;;;;;23.72;69.78;100298.59;;;;-45
2020/08/13 12:49:10;;;;;;;5.06;4.60;;;;;;;23.72;69.71;100295.64;;;;-45
2020/08/13 12:52:10;;;;;;;6.25;4.72;;;;;;;23.74;69.67;100299.85;;;;-46
2020/08/13 12:55:10;;;;;;;5.34;4.48;;;;;;;23.74;69.79;100296.18;;;;-45
2020/08/13 12:58:10;;;;;;;4.99;4.59;;;;;;;23.75;69.74;100299.52;;;;-45
2020/08/13 13:01:10;;;;;;;5.02;4.53;;;;;;;23.76;69.82;100302.23;;;;-46
2020/08/13 13:04:10;;;;;;;5.05;4.54;;;;;;;23.76;69.71;100303.55;;;;-44
2020/08/13 13:07:10;;;;;;;5.42;4.36;;;;;;;23.78;69.67;100308.09;;;;-45
2020/08/13 13:10:10;;;;;;;5.90;4.68;;;;;;;23.79;69.72;100306.20;;;;-44
2020/08/13 13:13:10;;;;;;;5.11;4.57;;;;;;;23.79;69.96;100304.91;;;;-51
2020/08/13 13:16:10;;;;;;;6.43;4.86;;;;;;;23.79;69.81;100306.52;;;;-46
2020/08/13 13:19:10;;;;;;;6.31;5.21;;;;;;;23.78;69.82;100306.88;;;;-54
2020/08/13 13:22:10;;;;;;;7.53;5.05;;;;;;;23.78;69.84;100312.50;;;;-47
2020/08/13 13:25:10;;;;;;;5.97;5.05;;;;;;;23.79;69.88;100308.34;;;;-47
2020/08/13 13:28:10;;;;;;;5.73;5.17;;;;;;;23.79;69.86;100306.92;;;;-44
2020/08/13 13:31:10;;;;;;;5.93;5.15;;;;;;;23.80;69.78;100301.20;;;;-46
2020/08/13 13:34:10;;;;;;;6.83;5.10;;;;;;;23.81;69.51;100302.75;;;;-45
2020/08/13 13:37:10;;;;;;;6.27;4.70;;;;;;;23.79;69.58;100297.77;;;;-46
2020/08/13 13:40:10;;;;;;;6.83;4.87;;;;;;;23.80;69.49;100293.74;;;;-46
2020/08/13 13:43:10;;;;;;;5.72;4.47;;;;;;;23.80;69.42;100293.66;;;;-45
2020/08/13 13:46:10;;;;;;;7.39;4.67;;;;;;;23.79;69.50;100288.94;;;;-46
2020/08/13 13:49:10;;;;;;;5.21;4.62;;;;;;;23.79;69.38;100288.45;;;;-46
2020/08/13 13:52:10;;;;;;;5.15;4.71;;;;;;;23.79;69.30;100289.27;;;;-46
2020/08/13 13:55:10;;;;;;;5.22;4.75;;;;;;;23.77;69.25;100287.15;;;;-46
2020/08/13 13:58:10;;;;;;;4.86;4.41;;;;;;;23.78;69.30;100285.77;;;;-47
2020/08/13 14:01:10;;;;;;;4.91;4.51;;;;;;;23.78;69.30;100280.92;;;;-47
2020/08/13 14:04:10;;;;;;;5.07;4.63;;;;;;;23.78;69.26;100282.17;;;;-46
2020/08/13 14:07:10;;;;;;;5.67;4.97;;;;;;;23.78;69.19;100276.01;;;;-46
2020/08/13 14:10:10;;;;;;;5.90;4.85;;;;;;;23.77;69.16;100277.58;;;;-46
2020/08/13 14:13:10;;;;;;;4.81;4.42;;;;;;;23.77;69.19;100271.45;;;;-46
2020/08/13 14:16:10;;;;;;;5.17;4.57;;;;;;;23.76;69.20;100269.17;;;;-47
2020/08/13 14:19:10;;;;;;;5.38;4.87;;;;;;;23.76;69.13;100270.38;;;;-46
2020/08/13 14:22:10;;;;;;;5.07;4.57;;;;;;;23.76;69.21;100271.19;;;;-46
2020/08/13 14:25:10;;;;;;;5.62;4.61;;;;;;;23.76;69.14;100268.23;;;;-46
2020/08/13 14:28:10;;;;;;;4.87;4.42;;;;;;;23.75;69.11;100268.66;;;;-46
2020/08/13 14:31:10;;;;;;;5.07;4.57;;;;;;;23.75;69.06;100267.11;;;;-46
2020/08/13 14:34:10;;;;;;;4.72;4.29;;;;;;;23.75;69.07;100263.20;;;;-46
2020/08/13 14:37:10;;;;;;;6.06;4.47;;;;;;;23.75;69.07;100257.13;;;;-46
2020/08/13 14:40:10;;;;;;;5.05;4.34;;;;;;;23.75;69.10;100254.91;;;;-47
2020/08/13 14:43:10;;;;;;;5.00;4.57;;;;;;;23.76;69.02;100256.45;;;;-46
2020/08/13 14:46:10;;;;;;;5.73;4.66;;;;;;;23.75;69.07;100258.94;;;;-47
2020/08/13 14:49:10;;;;;;;4.64;4.23;;;;;;;23.75;69.03;100260.25;;;;-46
2020/08/13 14:52:10;;;;;;;4.73;4.33;;;;;;;23.74;69.00;100257.06;;;;-45
2020/08/13 14:55:10;;;;;;;5.54;4.25;;;;;;;23.74;68.97;100253.55;;;;-46
2020/08/13 14:58:10;;;;;;;5.79;4.41;;;;;;;23.74;69.03;100249.14;;;;-46
2020/08/13 15:01:10;;;;;;;5.16;4.66;;;;;;;23.74;68.99;100246.58;;;;-46
2020/08/13 15:04:10;;;;;;;4.99;4.59;;;;;;;23.74;68.98;100236.38;;;;-46
2020/08/13 15:07:10;;;;;;;5.17;4.57;;;;;;;23.74;68.98;100234.23;;;;-46
2020/08/13 15:10:10;;;;;;;5.50;4.47;;;;;;;23.73;69.06;100228.10;;;;-54
2020/08/13 15:13:10;;;;;;;13.31;8.02;;;;;;;23.75;69.87;100224.16;;;;-50
2020/08/13 15:16:10;;;;;;;10.39;6.13;;;;;;;23.75;69.22;100220.14;;;;-50
2020/08/13 15:19:10;;;;;;;9.17;5.55;;;;;;;23.75;69.17;100213.94;;;;-51
2020/08/13 15:22:10;;;;;;;6.85;5.13;;;;;;;23.74;69.09;100210.68;;;;-50
2020/08/13 15:25:10;;;;;;;6.96;5.08;;;;;;;23.73;68.98;100204.62;;;;-51
2020/08/13 15:28:10;;;;;;;6.48;5.49;;;;;;;23.73;69.00;100203.66;;;;-51
2020/08/13 15:31:10;;;;;;;6.42;5.51;;;;;;;23.73;68.95;100202.19;;;;-50
2020/08/13 15:34:10;;;;;;;7.16;5.49;;;;;;;23.72;68.95;100199.75;;;;-50
2020/08/13 15:37:10;;;;;;;6.64;5.41;;;;;;;23.72;68.92;100195.71;;;;-50
2020/08/13 15:40:10;;;;;;;5.90;5.17;;;;;;;23.70;68.89;100190.03;;;;-50
2020/08/13 15:43:09;;;;;;;7.39;5.71;;;;;;;23.70;68.97;100184.13;;;;-51
2020/08/13 15:46:09;;;;;;;7.22;5.53;;;;;;;23.70;68.96;100183.25;;;;-50
2020/08/13 15:49:10;;;;;;;7.09;5.52;;;;;;;23.70;68.87;100182.48;;;;-50
2020/08/13 15:52:10;;;;;;;7.69;5.39;;;;;;;23.69;68.90;100180.47;;;;-50
2020/08/13 15:55:10;;;;;;;7.29;5.60;;;;;;;23.69;68.85;100176.30;;;;-50
2020/08/13 15:58:10;;;;;;;6.95;5.28;;;;;;;23.68;68.84;100173.46;;;;-50
2020/08/13 16:01:10;;;;;;;7.67;5.21;;;;;;;23.68;68.90;100165.61;;;;-51
2020/08/13 16:04:10;;;;;;;7.09;5.72;;;;;;;23.68;68.85;100165.77;;;;-50
2020/08/13 16:07:10;;;;;;;7.33;5.70;;;;;;;23.68;68.84;100165.61;;;;-51
2020/08/13 16:10:10;;;;;;;5.97;5.18;;;;;;;23.67;68.79;100163.47;;;;-51
2020/08/13 16:13:10;;;;;;;8.11;5.42;;;;;;;23.66;68.86;100158.92;;;;-50
2020/08/13 16:16:10;;;;;;;6.92;5.46;;;;;;;23.67;68.84;100155.72;;;;-50
2020/08/13 16:19:10;;;;;;;6.43;5.49;;;;;;;23.66;68.82;100153.36;;;;-50
2020/08/13 16:22:10;;;;;;;6.79;5.57;;;;;;;23.66;68.77;100158.83;;;;-51
2020/08/13 16:25:10;;;;;;;6.15;5.14;;;;;;;23.65;68.78;100161.30;;;;-51
2020/08/13 16:28:10;;;;;;;6.49;5.25;;;;;;;23.65;68.74;100154.66;;;;-51
2020/08/13 16:31:10;;;;;;;6.39;5.26;;;;;;;23.65;68.79;100158.28;;;;-50
2020/08/13 16:34:10;;;;;;;6.13;5.39;;;;;;;23.65;68.75;100156.41;;;;-51
2020/08/13 16:37:10;;;;;;;8.28;5.49;;;;;;;23.65;68.80;100156.39;;;;-50
2020/08/13 16:40:10;;;;;;;7.17;5.29;;;;;;;23.64;68.77;100143.33;;;;-50
2020/08/13 16:43:10;;;;;;;5.75;5.00;;;;;;;23.64;68.81;100143.00;;;;-50